createdAt,value
2022-09-13T00:01:45.031Z,1.40
2022-09-13T00:04:47.571Z,1.90
2022-09-13T00:07:52.380Z,1.50
2022-09-13T00:10:54.846Z,1.30
2022-09-13T00:13:57.904Z,1.50
2022-09-13T00:17:01.643Z,1.58
2022-09-13T00:20:04.367Z,1.55
2022-09-13T00:23:06.946Z,1.70
2022-09-13T00:26:10.465Z,1.52
2022-09-13T00:29:12.866Z,1.70
2022-09-13T00:32:16.643Z,1.50
2022-09-13T00:35:19.075Z,1.60
2022-09-13T00:38:21.570Z,1.73
2022-09-13T00:41:24.014Z,1.65
2022-09-13T00:44:59.429Z,1.80
2022-09-13T00:48:06.758Z,1.42
2022-09-13T00:51:10.243Z,1.50
2022-09-13T00:54:13.525Z,1.50
2022-09-13T00:57:17.158Z,1.60
2022-09-13T01:00:20.276Z,1.38
2022-09-13T01:03:25.372Z,1.98
2022-09-13T01:06:30.810Z,1.63
2022-09-13T01:09:36.186Z,1.55
2022-09-13T01:12:43.953Z,1.77
2022-09-13T01:15:46.997Z,1.70
2022-09-13T01:18:50.823Z,1.88
2022-09-13T01:22:02.975Z,2.08
2022-09-13T01:25:20.727Z,1.73
2022-09-13T01:28:42.508Z,1.70
2022-09-13T01:31:51.419Z,1.77
2022-09-13T01:35:00.970Z,1.63
2022-09-13T01:38:08.654Z,1.80
2022-09-13T01:41:20.073Z,1.80
2022-09-13T01:44:47.239Z,1.55
2022-09-13T01:47:53.568Z,2.08
2022-09-13T01:51:01.370Z,1.92
2022-09-13T01:54:13.458Z,2.08
2022-09-13T01:57:17.015Z,1.85
2022-09-13T02:00:48.441Z,2.25
2022-09-13T02:03:55.502Z,2.15
2022-09-13T02:07:13.306Z,2.10
2022-09-13T02:10:18.284Z,2.28
2022-09-13T02:13:23.649Z,2.40
2022-09-13T02:16:28.541Z,2.13
2022-09-13T02:19:35.050Z,2.08
2022-09-13T02:22:40.395Z,2.08
2022-09-13T02:25:44.682Z,2.15
2022-09-13T02:28:48.993Z,2.10
2022-09-13T02:31:55.992Z,2.15
2022-09-13T02:35:02.983Z,2.50
2022-09-13T02:38:06.700Z,2.03
2022-09-13T02:41:14.891Z,2.17
2022-09-13T02:44:20.581Z,2.30
2022-09-13T02:47:33.291Z,2.10
2022-09-13T02:50:45.754Z,2.05
2022-09-13T02:53:51.515Z,2.05
2022-09-13T02:56:56.571Z,2.25
2022-09-13T03:00:01.295Z,2.25
2022-09-13T03:03:05.756Z,2.33
2022-09-13T03:06:11.619Z,2.67
2022-09-13T03:09:14.558Z,2.45
2022-09-13T03:12:31.280Z,2.42
2022-09-13T03:15:41.357Z,2.70
2022-09-13T03:18:49.430Z,2.95
2022-09-13T03:21:59.790Z,2.30
2022-09-13T03:25:06.241Z,2.63
2022-09-13T03:28:12.073Z,3.00
2022-09-13T03:31:21.305Z,2.70
2022-09-13T03:34:27.516Z,2.55
2022-09-13T03:37:34.199Z,2.85
2022-09-13T03:40:39.634Z,3.30
2022-09-13T03:43:44.995Z,2.88
2022-09-13T03:46:48.834Z,3.00
2022-09-13T03:49:52.421Z,3.58
2022-09-13T03:52:59.546Z,4.05
2022-09-13T03:56:02.102Z,3.40
2022-09-13T03:59:04.645Z,3.20
2022-09-13T04:02:08.641Z,3.42
2022-09-13T04:05:11.133Z,3.03
2022-09-13T04:08:14.867Z,3.28
2022-09-13T04:11:17.288Z,3.75
2022-09-13T04:14:19.708Z,2.92
2022-09-13T04:17:22.185Z,3.63
2022-09-13T04:20:25.017Z,3.60
2022-09-13T04:23:29.966Z,3.50
2022-09-13T04:26:32.373Z,3.20
2022-09-13T04:29:34.777Z,4.10
2022-09-13T04:32:37.263Z,3.67
2022-09-13T04:40:17.191Z,3.55
2022-09-13T04:43:19.638Z,3.38
2022-09-13T04:46:22.220Z,3.83
2022-09-13T04:49:24.743Z,4.03
2022-09-13T04:52:27.177Z,4.28
2022-09-13T04:55:31.055Z,4.10
2022-09-13T04:58:33.818Z,3.75
2022-09-13T05:01:37.145Z,5.03
2022-09-13T05:04:39.621Z,3.85
2022-09-13T05:07:41.993Z,3.90
2022-09-13T05:10:47.606Z,3.88
2022-09-13T05:13:52.890Z,4.47
2022-09-13T05:16:58.725Z,4.47
2022-09-13T05:20:01.161Z,4.22
2022-09-13T05:23:03.919Z,4.30
2022-09-13T05:26:08.121Z,3.65
2022-09-13T05:29:10.501Z,4.35
2022-09-13T05:32:13.004Z,4.22
2022-09-13T05:35:15.462Z,3.85
2022-09-13T05:38:18.037Z,4.50
2022-09-13T05:41:21.990Z,4.80
2022-09-13T05:44:24.390Z,5.07
2022-09-13T05:47:26.807Z,5.40
2022-09-13T05:50:56.945Z,5.88
2022-09-13T05:53:52.997Z,4.97
2022-09-13T05:57:03.828Z,5.00
2022-09-13T06:00:06.747Z,5.78
2022-09-13T06:03:15.745Z,6.10
2022-09-13T06:06:18.289Z,5.45
2022-09-13T06:09:20.917Z,5.18
2022-09-13T06:12:24.663Z,5.55
2022-09-13T06:15:27.597Z,5.03
2022-09-13T06:18:30.172Z,5.53
2022-09-13T06:21:32.740Z,5.05
2022-09-13T06:24:37.765Z,6.00
2022-09-13T06:27:41.815Z,5.70
2022-09-13T06:30:44.793Z,5.68
2022-09-13T06:33:47.754Z,5.38
2022-09-13T06:36:50.306Z,5.05
2022-09-13T06:39:53.656Z,5.60
2022-09-13T06:42:57.722Z,6.20
2022-09-13T06:46:01.111Z,5.47
2022-09-13T06:49:04.538Z,6.15
2022-09-13T06:52:07.466Z,6.72
2022-09-13T06:55:12.681Z,6.88
2022-09-13T06:58:18.697Z,6.70
2022-09-13T07:01:22.465Z,7.25
2022-09-13T07:04:25.568Z,6.50
2022-09-13T07:07:28.175Z,7.03
2022-09-13T07:10:30.919Z,6.60
2022-09-13T07:13:36.200Z,7.57
2022-09-13T07:16:39.148Z,5.93
2022-09-13T07:19:55.579Z,6.57
2022-09-13T07:22:58.737Z,6.35
2022-09-13T07:26:05.653Z,8.07
2022-09-13T07:29:12.039Z,6.90
2022-09-13T07:32:15.557Z,7.35
2022-09-13T07:39:24.283Z,7.22
2022-09-13T07:42:27.424Z,6.65
2022-09-13T07:45:31.759Z,7.57
2022-09-13T07:48:35.425Z,6.32
2022-09-13T07:51:39.677Z,8.02
2022-09-13T07:54:43.253Z,7.30
2022-09-13T07:57:45.945Z,6.80
2022-09-13T08:00:50.042Z,8.13
2022-09-13T08:03:53.543Z,7.80
2022-09-13T08:06:56.384Z,6.10
2022-09-13T08:10:00.364Z,6.45
2022-09-13T08:13:03.230Z,6.97
2022-09-13T08:16:07.935Z,7.38
2022-09-13T08:19:12.643Z,5.97
2022-09-13T08:22:15.293Z,5.65
2022-09-13T08:25:34.818Z,6.10
2022-09-13T08:28:37.977Z,6.00
2022-09-13T08:32:04.748Z,6.18
2022-09-13T08:35:41.023Z,5.18
2022-09-13T08:38:46.626Z,4.57
2022-09-13T08:42:16.175Z,4.45
2022-09-13T08:45:19.130Z,3.70
2022-09-13T08:48:39.452Z,4.13
2022-09-13T08:51:47.175Z,4.20
2022-09-13T08:55:05.568Z,4.05
2022-09-13T08:58:31.211Z,3.10
2022-09-13T09:05:55.926Z,2.60
2022-09-13T09:09:06.925Z,3.10
2022-09-13T09:12:13.280Z,2.00
2022-09-13T09:15:17.356Z,1.70
2022-09-13T09:18:21.725Z,2.03
2022-09-13T09:21:24.466Z,1.50
2022-09-13T09:24:28.441Z,1.50
2022-09-13T09:27:31.807Z,1.23
2022-09-13T09:30:40.051Z,1.48
2022-09-13T09:33:50.306Z,1.10
2022-09-13T09:36:58.017Z,1.10
2022-09-13T09:40:07.940Z,1.45
2022-09-13T09:43:17.774Z,1.20
2022-09-13T09:46:23.122Z,0.98
2022-09-13T09:49:45.852Z,0.90
2022-09-13T09:52:51.824Z,0.55
2022-09-13T09:56:00.271Z,0.90
2022-09-13T09:59:03.452Z,1.23
2022-09-13T10:02:15.161Z,0.90
2022-09-13T10:05:22.050Z,0.70
2022-09-13T10:08:27.172Z,0.60
2022-09-13T10:11:41.906Z,0.70
2022-09-13T10:14:47.247Z,0.70
2022-09-13T10:18:03.304Z,0.82
2022-09-13T10:21:06.845Z,1.08
2022-09-13T10:24:18.379Z,0.77
2022-09-13T10:27:24.134Z,0.68
2022-09-13T10:30:31.734Z,0.98
2022-09-13T10:33:35.881Z,0.80
2022-09-13T10:36:52.298Z,0.85
2022-09-13T10:39:58.688Z,0.43
2022-09-13T10:43:05.117Z,0.55
2022-09-13T10:46:12.068Z,0.80
2022-09-13T10:49:29.632Z,0.57
2022-09-13T10:52:33.773Z,0.50
2022-09-13T10:55:39.058Z,0.57
2022-09-13T10:58:52.679Z,0.50
2022-09-13T11:02:11.740Z,0.60
2022-09-13T11:05:21.306Z,0.70
2022-09-13T11:08:32.685Z,0.50
2022-09-13T11:11:44.258Z,0.43
2022-09-13T11:14:57.584Z,0.73
2022-09-13T11:18:14.094Z,0.52
2022-09-13T11:21:23.345Z,0.52
2022-09-13T11:24:38.791Z,0.50
2022-09-13T11:27:45.932Z,0.70
2022-09-13T11:31:00.526Z,0.55
2022-09-13T11:34:16.243Z,1.25
2022-09-13T11:37:37.149Z,0.63
2022-09-13T11:40:44.904Z,0.90
2022-09-13T11:43:53.357Z,0.77
2022-09-13T11:47:00.196Z,0.70
2022-09-13T11:50:10.984Z,0.85
2022-09-13T11:53:31.630Z,0.75
2022-09-13T11:56:36.159Z,0.85
2022-09-13T11:59:42.102Z,0.57
2022-09-13T12:02:48.263Z,0.73
2022-09-13T12:05:53.231Z,1.10
2022-09-13T12:09:01.044Z,0.80
2022-09-13T12:12:06.042Z,0.65
2022-09-13T12:15:15.169Z,0.80
2022-09-13T12:18:21.473Z,0.80
2022-09-13T12:21:25.692Z,0.95
2022-09-13T12:24:31.686Z,0.60
2022-09-13T12:27:40.307Z,0.90
2022-09-13T12:30:45.718Z,0.70
2022-09-13T12:33:50.424Z,0.75
2022-09-13T12:37:00.273Z,0.63
2022-09-13T12:40:13.002Z,0.60
2022-09-13T12:43:25.376Z,0.57
2022-09-13T12:46:35.776Z,0.60
2022-09-13T12:49:46.917Z,0.88
2022-09-13T12:52:54.306Z,1.08
2022-09-13T12:56:02.229Z,0.70
2022-09-13T12:59:24.906Z,1.15
2022-09-13T13:02:30.553Z,0.70
2022-09-13T13:05:36.030Z,0.75
2022-09-13T13:08:39.498Z,0.90
2022-09-13T13:11:45.907Z,0.80
2022-09-13T13:14:53.149Z,0.75
2022-09-13T13:17:56.620Z,0.60
2022-09-13T13:21:22.075Z,1.08
2022-09-13T13:24:47.989Z,0.50
2022-09-13T13:27:54.952Z,0.50
2022-09-13T13:30:59.082Z,0.63
2022-09-13T13:34:02.670Z,0.93
2022-09-13T13:37:06.294Z,0.52
2022-09-13T13:40:25.279Z,0.80
2022-09-13T13:43:31.183Z,1.25
2022-09-13T13:46:34.195Z,0.82
2022-09-13T13:49:46.068Z,0.68
2022-09-13T13:52:56.652Z,1.08
2022-09-13T13:56:08.339Z,0.80
2022-09-13T13:59:14.766Z,0.68
2022-09-13T14:02:20.612Z,0.80
2022-09-13T14:05:25.894Z,0.85
2022-09-13T14:08:39.314Z,0.88
2022-09-13T14:11:49.176Z,1.02
2022-09-13T14:14:59.492Z,0.80
2022-09-13T14:18:11.472Z,0.93
2022-09-13T14:21:24.829Z,0.70
2022-09-13T14:24:27.492Z,0.73
2022-09-13T14:27:34.570Z,0.68
2022-09-13T14:30:38.380Z,0.60
2022-09-13T14:33:41.013Z,0.77
2022-09-13T14:36:52.287Z,0.80
2022-09-13T14:39:55.975Z,0.80
2022-09-13T14:43:00.211Z,1.25
2022-09-13T14:46:04.932Z,1.27
2022-09-13T14:49:09.343Z,0.80
2022-09-13T14:52:18.530Z,0.98
2022-09-13T14:55:23.052Z,0.77
2022-09-13T14:58:28.600Z,0.80
2022-09-13T15:01:32.584Z,0.80
2022-09-13T15:04:36.393Z,0.70
2022-09-13T15:07:42.069Z,0.60
2022-09-13T15:10:45.145Z,0.90
2022-09-13T15:14:01.403Z,0.98
2022-09-13T15:17:08.814Z,0.70
2022-09-13T15:20:13.228Z,0.60
2022-09-13T15:23:17.482Z,1.10
2022-09-13T15:26:21.108Z,0.80
2022-09-13T15:29:25.134Z,1.10
2022-09-13T15:32:32.068Z,0.77
2022-09-13T15:35:37.043Z,1.00
2022-09-13T15:38:56.704Z,0.60
2022-09-13T15:42:00.342Z,0.60
2022-09-13T15:45:04.447Z,0.80
2022-09-13T15:48:07.518Z,1.20
2022-09-13T15:51:11.024Z,0.82
2022-09-13T15:54:14.681Z,1.20
2022-09-13T15:57:18.979Z,0.73
2022-09-13T16:00:24.809Z,0.88
2022-09-13T16:03:27.998Z,1.02
2022-09-13T16:06:30.595Z,0.70
2022-09-13T16:09:33.311Z,0.70
2022-09-13T16:12:35.964Z,1.25
2022-09-13T16:15:39.971Z,0.70
2022-09-13T16:18:42.802Z,0.82
2022-09-13T16:21:45.482Z,0.75
2022-09-13T16:24:48.458Z,0.75
2022-09-13T16:27:53.397Z,1.33
2022-09-13T16:30:57.599Z,0.90
2022-09-13T16:34:00.378Z,0.95
2022-09-13T16:37:03.209Z,1.00
2022-09-13T16:40:06.748Z,0.85
2022-09-13T16:43:09.599Z,0.90
2022-09-13T16:46:14.772Z,0.80
2022-09-13T16:49:17.667Z,1.38
2022-09-13T16:52:20.258Z,0.88
2022-09-13T16:55:24.144Z,1.00
2022-09-13T16:58:26.802Z,1.20
2022-09-13T17:01:31.063Z,1.08
2022-09-13T17:04:34.012Z,0.70
2022-09-13T17:07:37.491Z,0.80
2022-09-13T17:10:40.190Z,1.45
2022-09-13T17:13:42.996Z,1.58
2022-09-13T17:16:48.188Z,1.10
2022-09-13T17:19:50.860Z,0.82
2022-09-13T17:22:54.227Z,0.60
2022-09-13T17:25:57.022Z,0.80
2022-09-13T17:28:59.566Z,0.55
2022-09-13T17:32:05.710Z,0.80
2022-09-13T17:35:11.760Z,0.80
2022-09-13T17:38:15.110Z,0.68
2022-09-13T17:41:19.137Z,0.93
2022-09-13T17:44:21.951Z,0.82
2022-09-13T17:47:26.382Z,0.93
2022-09-13T17:50:29.673Z,0.85
2022-09-13T17:53:32.530Z,0.85
2022-09-13T17:56:48.083Z,1.00
2022-09-13T17:59:54.918Z,0.80
2022-09-13T18:02:58.983Z,1.20
2022-09-13T18:06:02.483Z,0.80
2022-09-13T18:09:06.046Z,0.93
2022-09-13T18:12:09.174Z,0.70
2022-09-13T18:15:12.027Z,1.00
2022-09-13T18:18:16.178Z,0.68
2022-09-13T18:21:19.599Z,0.70
2022-09-13T18:24:23.233Z,0.80
2022-09-13T18:27:25.956Z,0.70
2022-09-13T18:30:28.591Z,0.70
2022-09-13T18:33:33.039Z,0.60
2022-09-13T18:36:36.108Z,0.93
2022-09-13T18:39:38.898Z,0.57
2022-09-13T18:42:45.026Z,0.85
2022-09-13T18:45:54.645Z,0.73
2022-09-13T18:48:59.168Z,0.57
2022-09-13T18:52:01.868Z,1.10
2022-09-13T18:55:04.708Z,0.63
2022-09-13T18:58:11.694Z,0.95
2022-09-13T19:01:16.737Z,0.90
2022-09-13T19:04:21.215Z,0.90
2022-09-13T19:07:23.928Z,0.80
2022-09-13T19:10:28.464Z,0.70
2022-09-13T19:13:31.539Z,0.95
2022-09-13T19:16:34.579Z,0.88
2022-09-13T19:19:44.417Z,1.33
2022-09-13T19:22:54.266Z,1.00
2022-09-13T19:26:03.513Z,0.70
2022-09-13T19:29:13.099Z,1.15
2022-09-13T19:32:16.182Z,0.70
2022-09-13T19:35:23.167Z,0.88
2022-09-13T19:38:28.161Z,0.80
2022-09-13T19:41:39.064Z,0.90
2022-09-13T19:44:51.136Z,1.02
2022-09-13T19:48:36.941Z,0.90
2022-09-13T19:51:20.639Z,0.75
2022-09-13T19:54:26.442Z,0.52
2022-09-13T19:57:31.674Z,0.80
2022-09-13T20:00:38.144Z,0.65
2022-09-13T20:03:41.403Z,1.00
2022-09-13T20:06:59.542Z,0.65
2022-09-13T20:10:06.049Z,0.73
2022-09-13T20:13:11.251Z,0.80
2022-09-13T20:16:16.640Z,0.82
2022-09-13T20:23:01.343Z,0.57
2022-09-13T20:26:07.729Z,0.82
2022-09-13T20:29:24.800Z,0.77
2022-09-13T20:32:27.945Z,0.77
2022-09-13T20:35:35.200Z,0.70
2022-09-13T20:38:48.475Z,0.77
2022-09-13T20:41:51.417Z,1.00
2022-09-13T20:44:54.112Z,0.90
2022-09-13T20:47:57.027Z,1.25
2022-09-13T20:51:07.208Z,0.65
2022-09-13T20:54:13.532Z,0.60
2022-09-13T20:57:16.439Z,0.70
2022-09-13T21:00:23.496Z,0.90
2022-09-13T21:03:32.353Z,0.57
2022-09-13T21:06:38.415Z,0.75
2022-09-13T21:09:42.760Z,0.68
2022-09-13T21:12:46.490Z,0.60
2022-09-13T21:15:50.289Z,0.90
2022-09-13T21:18:54.307Z,0.90
2022-09-13T21:21:57.359Z,0.85
2022-09-13T21:25:12.924Z,0.70
2022-09-13T21:28:16.111Z,0.52
2022-09-13T21:31:21.790Z,0.82
2022-09-13T21:34:27.241Z,0.70
2022-09-13T21:37:30.203Z,0.90
2022-09-13T21:40:34.851Z,0.50
2022-09-13T21:43:38.012Z,0.70
2022-09-13T21:46:41.947Z,0.50
2022-09-13T21:49:45.426Z,0.70
2022-09-13T21:52:48.482Z,0.50
2022-09-13T21:55:52.466Z,0.70
2022-09-13T21:58:58.116Z,0.68
2022-09-13T22:02:00.829Z,0.60
2022-09-13T22:05:03.758Z,0.80
2022-09-13T22:08:06.640Z,0.68
2022-09-13T22:11:11.578Z,0.80
2022-09-13T22:14:15.249Z,0.77
2022-09-13T22:17:18.015Z,0.65
2022-09-13T22:20:20.695Z,0.77
2022-09-13T22:23:23.421Z,0.93
2022-09-13T22:26:28.469Z,0.80
2022-09-13T22:29:31.342Z,1.00
2022-09-13T22:32:34.559Z,0.80
2022-09-13T22:35:37.193Z,0.80
2022-09-13T22:38:40.469Z,0.65
2022-09-13T22:41:44.944Z,1.15
2022-09-13T22:44:47.685Z,1.45
2022-09-13T22:47:50.476Z,0.70
2022-09-13T22:50:53.291Z,1.10
2022-09-13T22:53:56.361Z,1.05
2022-09-13T22:57:00.859Z,0.63
2022-09-13T23:00:03.866Z,0.63
2022-09-13T23:03:06.658Z,0.80
2022-09-13T23:06:10.176Z,0.63
2022-09-13T23:09:14.702Z,0.60
2022-09-13T23:12:18.694Z,0.70
2022-09-13T23:15:21.298Z,0.65
2022-09-13T23:18:24.008Z,1.00
2022-09-13T23:21:28.127Z,0.95
2022-09-13T23:24:30.987Z,0.52
2022-09-13T23:27:35.161Z,0.70
2022-09-13T23:30:37.650Z,0.60
2022-09-13T23:33:40.899Z,0.95
2022-09-13T23:36:44.034Z,0.60
2022-09-13T23:39:46.907Z,0.80
2022-09-13T23:42:51.097Z,0.68
2022-09-13T23:45:54.027Z,0.82
2022-09-13T23:48:57.031Z,1.58
2022-09-13T23:51:59.708Z,0.80
2022-09-13T23:55:02.265Z,0.80
2022-09-13T23:58:06.419Z,0.70
